createdAt,value
2022-11-24T00:00:00.577Z,-2
2022-11-24T00:01:00.718Z,-1.99
2022-11-24T00:02:00.980Z,-1.98
2022-11-24T00:03:01.087Z,-1.93
2022-11-24T00:04:01.166Z,-1.9
2022-11-24T00:05:00.309Z,-1.83
2022-11-24T00:06:00.457Z,-1.8
2022-11-24T00:07:00.618Z,-1.79
2022-11-24T00:08:00.782Z,-1.75
2022-11-24T00:09:00.882Z,-1.72
2022-11-24T00:10:01.054Z,-1.71
2022-11-24T00:11:01.195Z,-1.68
2022-11-24T00:12:00.340Z,-1.68
2022-11-24T00:13:00.514Z,-1.69
2022-11-24T00:14:00.633Z,-1.68
2022-11-24T00:15:00.787Z,-1.69
2022-11-24T00:16:00.930Z,-1.68
2022-11-24T00:17:01.129Z,-1.62
2022-11-24T00:18:01.241Z,-1.61
2022-11-24T00:19:00.374Z,-1.61
2022-11-24T00:20:00.515Z,-1.63
2022-11-24T00:21:00.679Z,-1.62
2022-11-24T00:22:00.799Z,-1.62
2022-11-24T00:23:00.945Z,-1.63
2022-11-24T00:24:01.095Z,-1.64
2022-11-24T00:25:01.247Z,-1.64
2022-11-24T00:26:00.382Z,-1.62
2022-11-24T00:27:00.563Z,-1.63
2022-11-24T00:28:00.675Z,-1.67
2022-11-24T00:29:00.844Z,-1.67
2022-11-24T00:30:01.011Z,-1.63
2022-11-24T00:31:01.212Z,-1.62
2022-11-24T00:32:00.301Z,-1.64
2022-11-24T00:33:00.432Z,-1.64
2022-11-24T00:34:00.580Z,-1.68
2022-11-24T00:35:00.726Z,-1.67
2022-11-24T00:36:00.878Z,-1.71
2022-11-24T00:37:01.090Z,-1.73
2022-11-24T00:38:01.190Z,-1.71
2022-11-24T00:39:00.355Z,-1.71
2022-11-24T00:40:00.502Z,-1.7
2022-11-24T00:41:00.647Z,-1.69
2022-11-24T00:42:00.775Z,-1.62
2022-11-24T00:43:00.921Z,-1.59
2022-11-24T00:44:01.074Z,-1.61
2022-11-24T00:45:12.983Z,-1.62
2022-11-24T00:46:00.563Z,-1.63
2022-11-24T00:47:00.611Z,-1.64
2022-11-24T00:48:00.657Z,-1.69
2022-11-24T00:49:00.786Z,-1.73
2022-11-24T00:50:00.940Z,-1.75
2022-11-24T00:51:01.109Z,-1.74
2022-11-24T00:52:01.234Z,-1.76
2022-11-24T00:53:00.373Z,-1.77
2022-11-24T00:54:00.514Z,-1.8
2022-11-24T00:55:00.669Z,-1.8
2022-11-24T00:56:00.827Z,-1.79
2022-11-24T00:57:00.962Z,-1.79
2022-11-24T00:58:01.103Z,-1.8
2022-11-24T00:59:01.258Z,-1.83
2022-11-24T01:00:00.398Z,-1.83
2022-11-24T01:01:00.625Z,-1.85
2022-11-24T01:02:00.778Z,-1.87
2022-11-24T01:03:00.963Z,-1.9
2022-11-24T01:04:00.988Z,-1.93
2022-11-24T01:05:01.128Z,-1.95
2022-11-24T01:06:00.287Z,-1.99
2022-11-24T01:07:00.448Z,-1.95
2022-11-24T01:08:00.576Z,-1.94
2022-11-24T01:09:00.724Z,-1.97
2022-11-24T01:10:00.872Z,-1.98
2022-11-24T01:11:01.038Z,-1.98
2022-11-24T01:12:01.194Z,-1.95
2022-11-24T01:13:00.326Z,-1.95
2022-11-24T01:14:00.472Z,-1.93
2022-11-24T01:15:00.623Z,-1.88
2022-11-24T01:16:00.832Z,-1.84
2022-11-24T01:17:00.935Z,-1.83
2022-11-24T01:18:01.066Z,-1.82
2022-11-24T01:19:01.207Z,-1.8
2022-11-24T01:20:00.342Z,-1.75
2022-11-24T01:21:00.489Z,-1.7
2022-11-24T01:22:00.644Z,-1.68
2022-11-24T01:23:00.779Z,-1.68
2022-11-24T01:24:00.924Z,-1.64
2022-11-24T01:25:01.074Z,-1.61
2022-11-24T01:26:01.238Z,-1.61
2022-11-24T01:27:00.359Z,-1.63
2022-11-24T01:28:00.520Z,-1.64
2022-11-24T01:29:00.663Z,-1.67
2022-11-24T01:30:00.808Z,-1.68
2022-11-24T01:31:01.030Z,-1.69
2022-11-24T01:32:01.107Z,-1.7
2022-11-24T01:33:01.258Z,-1.7
2022-11-24T01:34:00.410Z,-1.69
2022-11-24T01:35:00.547Z,-1.67
2022-11-24T01:36:00.725Z,-1.64
2022-11-24T01:37:00.854Z,-1.61
2022-11-24T01:38:01.001Z,-1.6
2022-11-24T01:39:01.162Z,-1.59
2022-11-24T01:40:00.324Z,-1.59
2022-11-24T01:41:00.465Z,-1.59
2022-11-24T01:42:00.609Z,-1.56
2022-11-24T01:43:00.754Z,-1.52
2022-11-24T01:44:00.890Z,-1.49
2022-11-24T01:45:01.030Z,-1.48
2022-11-24T01:46:01.208Z,-1.48
2022-11-24T01:47:00.331Z,-1.46
2022-11-24T01:48:00.472Z,-1.45
2022-11-24T01:49:00.621Z,-1.44
2022-11-24T01:50:00.782Z,-1.43
2022-11-24T01:51:00.938Z,-1.42
2022-11-24T01:52:01.124Z,-1.41
2022-11-24T01:53:01.238Z,-1.39
2022-11-24T01:54:00.384Z,-1.36
2022-11-24T01:55:00.531Z,-1.33
2022-11-24T01:56:00.680Z,-1.31
2022-11-24T01:57:00.854Z,-1.29
2022-11-24T01:58:00.990Z,-1.27
2022-11-24T01:59:01.142Z,-1.24
2022-11-24T02:00:00.276Z,-1.21
2022-11-24T02:01:00.482Z,-1.21
2022-11-24T02:02:00.641Z,-1.2
2022-11-24T02:03:00.784Z,-1.2
2022-11-24T02:04:00.872Z,-1.19
2022-11-24T02:05:01.028Z,-1.18
2022-11-24T02:06:01.168Z,-1.16
2022-11-24T02:07:00.333Z,-1.15
2022-11-24T02:08:00.458Z,-1.14
2022-11-24T02:09:00.603Z,-1.15
2022-11-24T02:10:00.764Z,-1.16
2022-11-24T02:11:00.913Z,-1.15
2022-11-24T02:12:01.078Z,-1.14
2022-11-24T02:13:01.212Z,-1.12
2022-11-24T02:14:00.362Z,-1.09
2022-11-24T02:15:00.509Z,-1.04
2022-11-24T02:16:00.745Z,-1.01
2022-11-24T02:17:00.840Z,-0.99
2022-11-24T02:18:00.955Z,-0.97
2022-11-24T02:19:01.108Z,-0.94
2022-11-24T02:20:01.258Z,-0.93
2022-11-24T02:21:00.425Z,-0.89
2022-11-24T02:22:00.561Z,-0.87
2022-11-24T02:23:00.687Z,-0.85
2022-11-24T02:24:00.859Z,-0.79
2022-11-24T02:25:00.993Z,-0.75
2022-11-24T02:26:01.170Z,-0.71
2022-11-24T02:27:00.280Z,-0.64
2022-11-24T02:28:00.437Z,-0.57
2022-11-24T02:29:00.583Z,-0.54
2022-11-24T02:30:00.732Z,-0.5
2022-11-24T02:31:00.995Z,-0.44
2022-11-24T02:32:01.027Z,-0.4
2022-11-24T02:33:01.164Z,-0.34
2022-11-24T02:34:00.312Z,-0.23
2022-11-24T02:35:00.463Z,-0.16
2022-11-24T02:36:00.641Z,-0.12
2022-11-24T02:37:00.782Z,-0.05
2022-11-24T02:38:00.903Z,0.02
2022-11-24T02:39:01.043Z,0.09
2022-11-24T02:40:01.184Z,0.18
2022-11-24T02:41:00.330Z,0.3
2022-11-24T02:42:00.506Z,0.42
2022-11-24T02:43:00.623Z,0.54
2022-11-24T02:44:00.762Z,0.66
2022-11-24T02:45:00.950Z,0.78
2022-11-24T02:46:01.146Z,0.93
2022-11-24T02:47:01.239Z,1.05
2022-11-24T02:48:00.363Z,1.1
2022-11-24T02:49:00.533Z,1.08
2022-11-24T02:50:00.675Z,1.1
2022-11-24T02:51:00.824Z,1.22
2022-11-24T02:52:00.984Z,1.31
2022-11-24T02:53:01.136Z,1.35
2022-11-24T02:54:00.274Z,1.4
2022-11-24T02:55:00.423Z,1.45
2022-11-24T02:56:00.634Z,1.5
2022-11-24T02:57:00.730Z,1.53
2022-11-24T02:58:00.865Z,1.58
2022-11-24T02:59:01.029Z,1.64
2022-11-24T03:00:01.159Z,1.64
2022-11-24T03:01:00.313Z,1.66
2022-11-24T03:02:00.531Z,1.67
2022-11-24T03:03:00.664Z,1.69
2022-11-24T03:04:00.771Z,1.72
2022-11-24T03:05:00.937Z,1.75
2022-11-24T03:06:01.069Z,1.77
2022-11-24T03:07:01.223Z,1.8
2022-11-24T03:08:00.375Z,1.82
2022-11-24T03:09:00.519Z,1.85
2022-11-24T03:10:00.675Z,1.88
2022-11-24T03:11:00.824Z,1.91
2022-11-24T03:12:00.962Z,1.95
2022-11-24T03:13:01.125Z,1.99
2022-11-24T03:14:01.264Z,2.02
2022-11-24T03:15:00.403Z,2.05
2022-11-24T03:16:00.630Z,2.03
2022-11-24T03:17:00.691Z,2.03
2022-11-24T03:18:00.854Z,2.05
2022-11-24T03:19:01.021Z,2.05
2022-11-24T03:20:04.576Z,2.08
2022-11-24T03:21:00.285Z,2.1
2022-11-24T03:22:00.431Z,2.1
2022-11-24T03:23:00.575Z,2.11
2022-11-24T03:24:00.766Z,2.12
2022-11-24T03:25:00.867Z,2.12
2022-11-24T03:26:01.018Z,2.11
2022-11-24T03:27:01.160Z,2.11
2022-11-24T03:28:00.315Z,2.12
2022-11-24T03:29:00.470Z,2.13
2022-11-24T03:30:00.606Z,2.13
2022-11-24T03:31:00.789Z,2.17
2022-11-24T03:32:00.914Z,2.2
2022-11-24T03:33:01.075Z,2.23
2022-11-24T03:34:01.200Z,2.25
2022-11-24T03:35:00.354Z,2.28
2022-11-24T03:36:00.501Z,2.3
2022-11-24T03:37:00.654Z,2.3
2022-11-24T03:38:00.803Z,2.34
2022-11-24T03:39:00.951Z,2.36
2022-11-24T03:40:01.089Z,2.38
2022-11-24T03:41:01.234Z,2.39
2022-11-24T03:42:00.385Z,2.42
2022-11-24T03:43:00.541Z,2.46
2022-11-24T03:44:00.714Z,2.49
2022-11-24T03:45:16.612Z,2.5
2022-11-24T03:46:01.053Z,2.54
2022-11-24T03:47:01.136Z,2.57
2022-11-24T03:48:00.294Z,2.58
2022-11-24T03:49:00.458Z,2.59
2022-11-24T03:50:00.599Z,2.61
2022-11-24T03:51:00.733Z,2.62
2022-11-24T03:52:05.244Z,2.64
2022-11-24T03:53:01.034Z,2.65
2022-11-24T03:54:01.210Z,2.66
2022-11-24T03:55:00.330Z,2.67
2022-11-24T03:56:00.473Z,2.68
2022-11-24T03:57:00.614Z,2.7
2022-11-24T03:58:00.777Z,2.71
2022-11-24T03:59:00.909Z,2.71
2022-11-24T04:00:01.054Z,2.72
2022-11-24T04:01:01.201Z,2.74
2022-11-24T04:02:00.401Z,2.76
2022-11-24T04:03:00.578Z,2.78
2022-11-24T04:04:00.641Z,2.79
2022-11-24T04:05:00.767Z,2.79
2022-11-24T04:06:00.901Z,2.8
2022-11-24T04:07:01.052Z,2.82
2022-11-24T04:08:01.202Z,2.85
2022-11-24T04:09:00.349Z,2.85
2022-11-24T04:10:00.496Z,2.86
2022-11-24T04:11:00.629Z,2.86
2022-11-24T04:12:00.780Z,2.87
2022-11-24T04:13:00.957Z,2.87
2022-11-24T04:14:01.089Z,2.87
2022-11-24T04:15:01.228Z,2.87
2022-11-24T04:16:00.403Z,2.88
2022-11-24T04:17:00.521Z,2.89
2022-11-24T04:18:00.682Z,2.91
2022-11-24T04:19:00.816Z,2.91
2022-11-24T04:20:00.954Z,2.91
2022-11-24T04:21:01.126Z,2.91
2022-11-24T04:22:01.270Z,2.91
2022-11-24T04:23:00.440Z,2.91
2022-11-24T04:24:00.571Z,2.9
2022-11-24T04:25:00.718Z,2.89
2022-11-24T04:26:00.867Z,2.88
2022-11-24T04:27:01.015Z,2.86
2022-11-24T04:28:01.170Z,2.86
2022-11-24T04:29:00.304Z,2.85
2022-11-24T04:30:00.444Z,2.81
2022-11-24T04:31:00.662Z,2.79
2022-11-24T04:32:00.752Z,2.79
2022-11-24T04:33:00.887Z,2.79
2022-11-24T04:34:01.031Z,2.82
2022-11-24T04:35:01.175Z,2.87
2022-11-24T04:36:00.343Z,2.91
2022-11-24T04:37:00.475Z,2.95
2022-11-24T04:38:00.615Z,2.96
2022-11-24T04:39:25.523Z,2.95
2022-11-24T04:40:00.932Z,2.93
2022-11-24T04:41:01.085Z,2.96
2022-11-24T04:42:01.209Z,2.98
2022-11-24T04:43:00.359Z,2.98
2022-11-24T04:44:00.498Z,2.99
2022-11-24T04:45:00.641Z,2.99
2022-11-24T04:46:00.798Z,2.98
2022-11-24T04:47:01.042Z,2.98
2022-11-24T04:48:01.087Z,2.99
2022-11-24T04:49:01.240Z,2.99
2022-11-24T04:50:00.386Z,2.98
2022-11-24T04:51:00.549Z,2.98
2022-11-24T04:52:00.674Z,2.98
2022-11-24T04:53:00.831Z,2.97
2022-11-24T04:54:01.003Z,2.96
2022-11-24T04:55:01.122Z,2.96
2022-11-24T04:56:01.269Z,2.96
2022-11-24T04:57:00.409Z,2.97
2022-11-24T04:58:00.552Z,2.97
2022-11-24T04:59:05.131Z,2.96
2022-11-24T05:00:00.871Z,2.96
2022-11-24T05:01:01.031Z,2.97
2022-11-24T05:02:01.283Z,2.96
2022-11-24T05:03:00.316Z,2.97
2022-11-24T05:04:00.539Z,2.98
2022-11-24T05:05:00.607Z,2.98
2022-11-24T05:06:00.764Z,3
2022-11-24T05:07:00.911Z,3.01
2022-11-24T05:08:01.171Z,3.02
2022-11-24T05:09:01.212Z,3.03
2022-11-24T05:10:00.342Z,3.04
2022-11-24T05:11:00.498Z,3.08
2022-11-24T05:12:00.634Z,3.09
2022-11-24T05:13:00.800Z,3.1
2022-11-24T05:14:00.935Z,3.12
2022-11-24T05:15:01.089Z,3.13
2022-11-24T05:16:01.299Z,3.13
2022-11-24T05:17:00.377Z,3.15
2022-11-24T05:18:00.536Z,3.16
2022-11-24T05:19:00.662Z,3.17
2022-11-24T05:20:00.806Z,3.17
2022-11-24T05:21:01.575Z,3.18
2022-11-24T05:22:01.102Z,3.17
2022-11-24T05:23:01.271Z,3.19
2022-11-24T05:24:00.408Z,3.2
2022-11-24T05:25:00.557Z,3.2
2022-11-24T05:26:00.726Z,3.21
2022-11-24T05:27:00.853Z,3.23
2022-11-24T05:28:01.017Z,3.24
2022-11-24T05:29:01.228Z,3.24
2022-11-24T05:30:00.305Z,3.24
2022-11-24T05:31:00.575Z,3.25
2022-11-24T05:32:00.597Z,3.25
2022-11-24T05:33:00.747Z,3.26
2022-11-24T05:34:00.897Z,3.25
2022-11-24T05:35:01.031Z,3.26
2022-11-24T05:36:01.191Z,3.28
2022-11-24T05:37:00.329Z,3.3
2022-11-24T05:38:00.475Z,3.31
2022-11-24T05:39:00.655Z,3.32
2022-11-24T05:40:00.789Z,3.33
2022-11-24T05:41:00.928Z,3.33
2022-11-24T05:42:01.086Z,3.35
2022-11-24T05:43:01.219Z,3.36
2022-11-24T05:44:00.382Z,3.39
2022-11-24T05:45:00.498Z,3.39
2022-11-24T05:46:00.661Z,3.4
2022-11-24T05:47:00.874Z,3.42
2022-11-24T05:48:00.946Z,3.44
2022-11-24T05:49:01.122Z,3.46
2022-11-24T05:50:01.251Z,3.46
2022-11-24T05:51:03.118Z,3.47
2022-11-24T05:52:00.525Z,3.47
2022-11-24T05:53:00.681Z,3.47
2022-11-24T05:54:00.847Z,3.47
2022-11-24T05:55:00.979Z,3.48
2022-11-24T05:56:01.130Z,3.49
2022-11-24T05:57:00.277Z,3.53
2022-11-24T05:58:00.411Z,3.55
2022-11-24T05:59:03.131Z,3.56
2022-11-24T06:00:00.703Z,3.57
2022-11-24T06:01:00.862Z,3.58
2022-11-24T06:02:01.192Z,3.59
2022-11-24T06:03:01.388Z,3.59
2022-11-24T06:04:00.325Z,3.59
2022-11-24T06:05:00.447Z,3.6
2022-11-24T06:06:00.622Z,3.6
2022-11-24T06:07:00.750Z,3.62
2022-11-24T06:08:00.914Z,3.62
2022-11-24T06:09:01.046Z,3.63
2022-11-24T06:10:01.189Z,3.64
2022-11-24T06:11:00.343Z,3.64
2022-11-24T06:12:00.478Z,3.65
2022-11-24T06:13:00.633Z,3.65
2022-11-24T06:14:00.780Z,3.65
2022-11-24T06:15:00.945Z,3.65
2022-11-24T06:16:01.218Z,3.67
2022-11-24T06:17:01.237Z,3.68
2022-11-24T06:18:00.383Z,3.68
2022-11-24T06:19:00.524Z,3.69
2022-11-24T06:20:00.663Z,3.72
2022-11-24T06:21:10.741Z,3.72
2022-11-24T06:22:00.969Z,3.73
2022-11-24T06:23:01.168Z,3.74
2022-11-24T06:24:00.265Z,3.74
2022-11-24T06:25:00.406Z,3.74
2022-11-24T06:26:00.556Z,3.75
2022-11-24T06:27:00.703Z,3.76
2022-11-24T06:28:00.852Z,3.76
2022-11-24T06:29:00.988Z,3.75
2022-11-24T06:30:01.140Z,3.75
2022-11-24T06:31:00.283Z,3.74
2022-11-24T06:32:00.505Z,3.74
2022-11-24T06:33:00.594Z,3.74
2022-11-24T06:34:00.764Z,3.74
2022-11-24T06:35:00.872Z,3.73
2022-11-24T06:36:01.018Z,3.73
2022-11-24T06:37:01.167Z,3.73
2022-11-24T06:38:00.326Z,3.74
2022-11-24T06:39:00.460Z,3.74
2022-11-24T06:40:00.609Z,3.73
2022-11-24T06:41:00.785Z,3.73
2022-11-24T06:42:00.901Z,3.72
2022-11-24T06:43:01.059Z,3.73
2022-11-24T06:44:01.196Z,3.73
2022-11-24T06:45:00.471Z,3.74
2022-11-24T06:46:00.523Z,3.76
2022-11-24T06:47:00.627Z,3.78
2022-11-24T06:48:00.769Z,3.8
2022-11-24T06:49:00.920Z,3.83
2022-11-24T06:50:01.106Z,3.85
2022-11-24T06:51:01.212Z,3.85
2022-11-24T06:52:00.350Z,3.85
2022-11-24T06:53:00.509Z,3.85
2022-11-24T06:54:00.661Z,3.85
2022-11-24T06:55:00.820Z,3.86
2022-11-24T06:56:00.966Z,3.88
2022-11-24T06:57:01.116Z,3.9
2022-11-24T06:58:00.285Z,3.92
2022-11-24T06:59:00.406Z,3.93
2022-11-24T07:00:00.554Z,3.94
2022-11-24T07:01:00.729Z,3.95
2022-11-24T07:02:00.852Z,3.97
2022-11-24T07:03:01.108Z,3.99
2022-11-24T07:04:01.144Z,4
2022-11-24T07:05:00.308Z,4.01
2022-11-24T07:06:00.447Z,4.01
2022-11-24T07:07:00.585Z,4.02
2022-11-24T07:08:00.752Z,4.03
2022-11-24T07:09:00.890Z,4.03
2022-11-24T07:10:01.038Z,4.04
2022-11-24T07:11:01.182Z,4.05
2022-11-24T07:12:00.315Z,4.07
2022-11-24T07:13:00.485Z,4.08
2022-11-24T07:14:00.631Z,4.1
2022-11-24T07:15:00.753Z,4.12
2022-11-24T07:16:00.959Z,4.13
2022-11-24T07:17:01.063Z,4.12
2022-11-24T07:18:01.221Z,4.13
2022-11-24T07:19:00.356Z,4.14
2022-11-24T07:20:00.497Z,4.16
2022-11-24T07:21:00.680Z,4.19
2022-11-24T07:22:00.821Z,4.21
2022-11-24T07:23:00.973Z,4.23
2022-11-24T07:24:01.116Z,4.26
2022-11-24T07:25:00.266Z,4.27
2022-11-24T07:26:06.400Z,4.3
2022-11-24T07:27:00.599Z,4.32
2022-11-24T07:28:00.721Z,4.33
2022-11-24T07:29:00.882Z,4.34
2022-11-24T07:30:01.019Z,4.36
2022-11-24T07:31:01.167Z,4.37
2022-11-24T07:32:05.266Z,4.38
2022-11-24T07:33:00.469Z,4.41
2022-11-24T07:34:00.604Z,4.42
2022-11-24T07:35:00.751Z,4.44
2022-11-24T07:36:00.908Z,4.45
2022-11-24T07:37:01.070Z,4.46
2022-11-24T07:38:01.198Z,4.46
2022-11-24T07:39:00.359Z,4.47
2022-11-24T07:40:00.523Z,4.48
2022-11-24T07:41:00.635Z,4.49
2022-11-24T07:42:00.793Z,4.49
2022-11-24T07:43:00.925Z,4.5
2022-11-24T07:44:01.084Z,4.49
2022-11-24T07:45:01.243Z,4.5
2022-11-24T07:46:00.466Z,4.51
2022-11-24T07:47:00.514Z,4.52
2022-11-24T07:48:00.679Z,4.53
2022-11-24T07:49:00.814Z,4.54
2022-11-24T07:50:00.953Z,4.56
2022-11-24T07:51:01.120Z,4.57
2022-11-24T07:52:01.247Z,4.58
2022-11-24T07:53:00.395Z,4.59
2022-11-24T07:54:00.546Z,4.61
2022-11-24T07:55:00.696Z,4.63
2022-11-24T07:56:00.879Z,4.64
2022-11-24T07:57:01.001Z,4.66
2022-11-24T07:58:01.155Z,4.68
2022-11-24T07:59:00.292Z,4.72
2022-11-24T08:00:00.451Z,4.76
2022-11-24T08:01:00.614Z,4.78
2022-11-24T08:02:00.799Z,4.8
2022-11-24T08:03:00.891Z,4.83
2022-11-24T08:04:01.134Z,4.84
2022-11-24T08:05:01.179Z,4.87
2022-11-24T08:07:00.493Z,4.91
2022-11-24T08:08:00.640Z,4.93
2022-11-24T08:09:00.809Z,4.94
2022-11-24T08:10:00.938Z,4.95
2022-11-24T08:11:01.094Z,4.97
2022-11-24T08:12:01.225Z,4.98
2022-11-24T08:13:00.365Z,5.01
2022-11-24T08:14:00.539Z,5.01
2022-11-24T08:15:00.671Z,5.02
2022-11-24T08:16:00.815Z,5.02
2022-11-24T08:17:01.088Z,5.03
2022-11-24T08:18:01.121Z,5.04
2022-11-24T08:19:00.282Z,5.05
2022-11-24T08:20:00.423Z,5.06
2022-11-24T08:21:00.566Z,5.07
2022-11-24T08:22:00.719Z,5.08
2022-11-24T08:23:00.860Z,5.1
2022-11-24T08:24:01.018Z,5.11
2022-11-24T08:25:01.190Z,5.12
2022-11-24T08:26:00.299Z,5.13
2022-11-24T08:27:00.454Z,5.15
2022-11-24T08:28:00.611Z,5.16
2022-11-24T08:29:00.768Z,5.17
2022-11-24T08:30:00.930Z,5.18
2022-11-24T08:31:01.082Z,5.19
2022-11-24T08:32:01.241Z,5.2
2022-11-24T08:33:00.357Z,5.21
2022-11-24T08:34:00.507Z,5.22
2022-11-24T08:35:13.454Z,5.23
2022-11-24T08:36:00.820Z,5.25
2022-11-24T08:37:00.943Z,5.26
2022-11-24T08:38:04.699Z,5.28
2022-11-24T08:39:01.242Z,5.28
2022-11-24T08:40:00.383Z,5.28
2022-11-24T08:41:00.565Z,5.31
2022-11-24T08:42:00.684Z,5.31
2022-11-24T08:43:00.834Z,5.32
2022-11-24T08:44:00.972Z,5.32
2022-11-24T08:45:13.033Z,5.32
2022-11-24T08:46:00.325Z,5.32
2022-11-24T08:47:00.449Z,5.33
2022-11-24T08:48:00.568Z,5.34
2022-11-24T08:49:00.720Z,5.34
2022-11-24T08:50:00.875Z,5.36
2022-11-24T08:51:01.016Z,5.37
2022-11-24T08:52:01.183Z,5.38
2022-11-24T08:53:00.303Z,5.4
2022-11-24T08:54:00.455Z,5.41
2022-11-24T08:55:00.597Z,5.42
2022-11-24T08:56:00.762Z,5.45
2022-11-24T08:57:00.921Z,5.46
2022-11-24T08:58:01.067Z,5.49
2022-11-24T08:59:01.287Z,5.51
2022-11-24T09:00:00.352Z,5.53
2022-11-24T09:01:00.569Z,5.55
2022-11-24T09:02:00.734Z,5.57
2022-11-24T09:03:00.795Z,5.6
2022-11-24T09:04:01.043Z,5.63
2022-11-24T09:05:01.067Z,5.64
2022-11-24T09:06:01.219Z,5.66
2022-11-24T09:07:00.368Z,5.66
2022-11-24T09:08:00.520Z,5.68
2022-11-24T09:09:00.650Z,5.7
2022-11-24T09:10:00.812Z,5.72
2022-11-24T09:11:00.963Z,5.75
2022-11-24T09:12:01.108Z,5.77
2022-11-24T09:13:01.279Z,5.8
2022-11-24T09:14:00.418Z,5.84
2022-11-24T09:15:00.563Z,5.86
2022-11-24T09:16:00.717Z,5.89
2022-11-24T09:17:00.904Z,5.91
2022-11-24T09:18:01.011Z,5.94
2022-11-24T09:19:01.160Z,5.97
2022-11-24T09:20:00.290Z,5.99
2022-11-24T09:21:00.444Z,6.01
2022-11-24T09:22:00.588Z,6.07
2022-11-24T09:23:00.740Z,6.11
2022-11-24T09:24:00.906Z,6.13
2022-11-24T09:25:01.059Z,6.17
2022-11-24T09:26:01.202Z,6.2
2022-11-24T09:27:00.341Z,6.22
2022-11-24T09:28:00.478Z,6.25
2022-11-24T09:29:00.640Z,6.29
2022-11-24T09:30:00.774Z,6.33
2022-11-24T09:31:01.042Z,6.35
2022-11-24T09:32:06.466Z,6.37
2022-11-24T09:33:01.217Z,6.38
2022-11-24T09:34:00.360Z,6.39
2022-11-24T09:35:00.514Z,6.41
2022-11-24T09:36:00.670Z,6.43
2022-11-24T09:37:00.798Z,6.46
2022-11-24T09:38:00.947Z,6.52
2022-11-24T09:39:01.089Z,6.55
2022-11-24T09:40:01.240Z,6.58
2022-11-24T09:41:00.402Z,6.6
2022-11-24T09:42:00.539Z,6.61
2022-11-24T09:43:00.692Z,6.67
2022-11-24T09:44:00.843Z,6.71
2022-11-24T09:45:00.986Z,6.72
2022-11-24T09:46:05.797Z,6.73
2022-11-24T09:47:00.368Z,6.73
2022-11-24T09:48:00.416Z,6.75
2022-11-24T09:49:00.569Z,6.75
2022-11-24T09:50:00.718Z,6.75
2022-11-24T09:51:00.887Z,6.76
2022-11-24T09:52:01.023Z,6.8
2022-11-24T09:53:01.191Z,6.82
2022-11-24T09:54:00.317Z,6.84
2022-11-24T09:55:00.468Z,6.87
2022-11-24T09:56:00.651Z,6.88
2022-11-24T09:57:00.801Z,6.88
2022-11-24T09:58:00.987Z,6.9
2022-11-24T09:59:01.092Z,6.95
2022-11-24T10:00:01.239Z,6.96
2022-11-24T10:01:00.450Z,6.99
2022-11-24T10:02:00.572Z,6.99
2022-11-24T10:03:00.698Z,7.02
2022-11-24T10:04:05.918Z,7.04
2022-11-24T10:05:01.056Z,7.08
2022-11-24T10:06:01.117Z,7.11
2022-11-24T10:08:00.437Z,7.16
2022-11-24T10:09:00.505Z,7.23
2022-11-24T10:10:00.654Z,7.23
2022-11-24T10:11:00.803Z,7.27
2022-11-24T10:12:00.943Z,7.31
2022-11-24T10:13:01.117Z,7.33
2022-11-24T10:14:01.241Z,7.34
2022-11-24T10:15:00.387Z,7.39
2022-11-24T10:16:00.614Z,7.42
2022-11-24T10:17:00.688Z,7.45
2022-11-24T10:18:00.846Z,7.48
2022-11-24T10:19:00.996Z,7.55
2022-11-24T10:20:01.111Z,7.59
2022-11-24T10:21:00.264Z,7.6
2022-11-24T10:22:00.411Z,7.63
2022-11-24T10:23:00.559Z,7.67
2022-11-24T10:24:00.727Z,7.7
2022-11-24T10:25:00.881Z,7.72
2022-11-24T10:26:01.000Z,7.71
2022-11-24T10:27:01.142Z,7.7
2022-11-24T10:28:00.294Z,7.72
2022-11-24T10:29:00.434Z,7.73
2022-11-24T10:30:00.601Z,7.76
2022-11-24T10:31:00.813Z,7.81
2022-11-24T10:32:00.887Z,7.84
2022-11-24T10:33:01.022Z,7.83
2022-11-24T10:34:01.181Z,7.85
2022-11-24T10:35:00.334Z,7.88
2022-11-24T10:36:00.479Z,7.89
2022-11-24T10:37:00.628Z,7.91
2022-11-24T10:38:00.767Z,7.91
2022-11-24T10:39:00.925Z,7.93
2022-11-24T10:40:01.104Z,7.93
2022-11-24T10:41:01.231Z,7.94
2022-11-24T10:42:00.368Z,7.97
2022-11-24T10:43:00.521Z,7.97
2022-11-24T10:44:00.673Z,7.98
2022-11-24T10:45:00.822Z,7.98
2022-11-24T10:46:01.021Z,7.99
2022-11-24T10:47:01.118Z,8.03
2022-11-24T10:49:00.375Z,8.06
2022-11-24T10:50:00.540Z,8.08
2022-11-24T10:51:00.661Z,8.11
2022-11-24T10:52:00.806Z,8.13
2022-11-24T10:53:00.956Z,8.14
2022-11-24T10:54:01.141Z,8.17
2022-11-24T10:55:01.288Z,8.21
2022-11-24T10:56:00.432Z,8.23
2022-11-24T10:57:00.567Z,8.23
2022-11-24T10:58:00.717Z,8.21
2022-11-24T10:59:00.860Z,8.24
2022-11-24T11:00:00.995Z,8.24
2022-11-24T11:01:01.209Z,8.22
2022-11-24T11:02:00.316Z,8.2
2022-11-24T11:03:00.605Z,8.19
2022-11-24T11:04:00.585Z,8.18
2022-11-24T11:05:00.738Z,8.18
2022-11-24T11:06:00.884Z,8.17
2022-11-24T11:07:01.026Z,8.18
2022-11-24T11:08:05.513Z,8.17
2022-11-24T11:09:00.332Z,8.18
2022-11-24T11:10:00.474Z,8.19
2022-11-24T11:11:00.619Z,8.2
2022-11-24T11:12:10.042Z,8.21
2022-11-24T11:13:00.912Z,8.23
2022-11-24T11:14:04.191Z,8.26
2022-11-24T11:15:01.211Z,8.28
2022-11-24T11:16:00.454Z,8.32
2022-11-24T11:17:00.520Z,8.35
2022-11-24T11:18:00.667Z,8.37
2022-11-24T11:19:00.805Z,8.39
2022-11-24T11:20:02.594Z,8.37
2022-11-24T11:21:01.126Z,8.37
2022-11-24T11:22:01.258Z,8.36
2022-11-24T11:23:00.395Z,8.37
2022-11-24T11:24:00.550Z,8.39
2022-11-24T11:25:00.690Z,8.37
2022-11-24T11:26:00.868Z,8.41
2022-11-24T11:27:00.984Z,8.41
2022-11-24T11:28:06.964Z,8.42
2022-11-24T11:31:15.589Z,8.44
2022-11-24T11:31:21.451Z,8.45
2022-11-24T11:34:06.306Z,8.47
2022-11-24T11:35:01.145Z,8.48
2022-11-24T11:36:00.308Z,8.48
2022-11-24T11:37:00.461Z,8.49
2022-11-24T11:38:00.587Z,8.5
2022-11-24T11:39:00.746Z,8.51
2022-11-24T11:40:00.889Z,8.52
2022-11-24T11:41:01.063Z,8.56
2022-11-24T11:42:01.221Z,8.58
2022-11-24T11:43:03.039Z,8.6
2022-11-24T11:44:00.473Z,8.63
2022-11-24T11:45:00.623Z,8.65
2022-11-24T11:46:00.970Z,8.66
2022-11-24T11:47:00.984Z,8.68
2022-11-24T11:48:01.077Z,8.73
2022-11-24T11:49:01.235Z,8.77
2022-11-24T11:50:00.360Z,8.83
2022-11-24T11:51:22.150Z,8.86
2022-11-24T11:52:00.646Z,8.89
2022-11-24T11:53:00.812Z,8.94
2022-11-24T11:54:01.043Z,8.94
2022-11-24T11:55:01.132Z,8.94
2022-11-24T11:56:00.259Z,8.95
2022-11-24T11:57:00.394Z,8.94
2022-11-24T11:58:00.554Z,8.95
2022-11-24T11:59:00.692Z,8.95
2022-11-24T12:00:00.861Z,9.03
2022-11-24T12:01:01.019Z,9.07
2022-11-24T12:02:01.140Z,9.06
2022-11-24T12:03:00.451Z,9.08
2022-11-24T12:04:00.617Z,9.1
2022-11-24T12:05:00.597Z,9.14
2022-11-24T12:06:00.735Z,9.15
2022-11-24T12:07:00.875Z,9.14
2022-11-24T12:08:06.381Z,9.12
2022-11-24T12:09:19.934Z,9.12
2022-11-24T12:10:00.337Z,9.15
2022-11-24T12:11:00.473Z,9.16
2022-11-24T12:12:00.598Z,9.16
2022-11-24T12:13:00.764Z,9.17
2022-11-24T12:14:00.894Z,9.18
2022-11-24T12:15:04.575Z,9.18
2022-11-24T12:16:01.222Z,9.18
2022-11-24T12:17:00.357Z,9.18
2022-11-24T12:18:00.521Z,9.16
2022-11-24T12:19:00.651Z,9.15
2022-11-24T12:20:00.796Z,9.14
2022-11-24T12:21:00.955Z,9.12
2022-11-24T12:22:01.117Z,9.12
2022-11-24T12:23:01.260Z,9.11
2022-11-24T12:24:00.402Z,9.1
2022-11-24T12:25:00.661Z,9.07
2022-11-24T12:26:00.738Z,9.06
2022-11-24T12:27:00.876Z,9.06
2022-11-24T12:28:01.019Z,9.05
2022-11-24T12:29:01.166Z,9.05
2022-11-24T12:30:00.339Z,9.06
2022-11-24T12:31:00.538Z,9.07
2022-11-24T12:32:00.606Z,9.12
2022-11-24T12:33:00.747Z,9.14
2022-11-24T12:34:01.372Z,9.15
2022-11-24T12:35:01.056Z,9.16
2022-11-24T12:36:01.206Z,9.16
2022-11-24T12:37:00.368Z,9.16
2022-11-24T12:38:00.484Z,9.17
2022-11-24T12:39:00.633Z,9.18
2022-11-24T12:40:00.788Z,9.19
2022-11-24T12:41:25.375Z,9.19
2022-11-24T12:42:01.092Z,9.18
2022-11-24T12:43:01.230Z,9.18
2022-11-24T12:44:00.368Z,9.18
2022-11-24T12:45:00.518Z,9.16
2022-11-24T12:46:00.667Z,9.17
2022-11-24T12:47:00.929Z,9.15
2022-11-24T12:48:00.975Z,9.14
2022-11-24T12:49:01.115Z,9.15
2022-11-24T12:50:00.259Z,9.15
2022-11-24T12:51:00.409Z,9.14
2022-11-24T12:52:00.567Z,9.11
2022-11-24T12:53:00.747Z,9.1
2022-11-24T12:54:00.857Z,9.08
2022-11-24T12:55:01.009Z,9.07
2022-11-24T12:56:01.143Z,9.06
2022-11-24T12:57:00.292Z,9.04
2022-11-24T12:58:00.445Z,9.02
2022-11-24T12:59:00.586Z,8.97
2022-11-24T13:00:00.721Z,8.95
2022-11-24T13:01:01.044Z,8.95
2022-11-24T13:02:01.193Z,8.94
2022-11-24T13:03:01.414Z,8.94
2022-11-24T13:04:00.309Z,8.94
2022-11-24T13:05:00.458Z,8.94
2022-11-24T13:06:00.619Z,8.94
2022-11-24T13:07:00.768Z,8.93
2022-11-24T13:08:00.933Z,8.88
2022-11-24T13:09:01.068Z,8.85
2022-11-24T13:10:01.219Z,8.81
2022-11-24T13:11:00.401Z,8.8
2022-11-24T13:12:03.544Z,8.77
2022-11-24T13:13:00.663Z,8.76
2022-11-24T13:14:00.823Z,8.77
2022-11-24T13:15:00.944Z,8.78
2022-11-24T13:16:34.504Z,8.77
2022-11-24T13:17:29.372Z,8.78
2022-11-24T13:18:10.536Z,8.77
2022-11-24T13:19:00.610Z,8.78
2022-11-24T13:20:00.696Z,8.79
2022-11-24T13:21:00.847Z,8.78